KEPH/EPH METAR and TAF weather

Enter ICAO airport designator
Station Type Date Time Source
KEPH METAR 2020/10/29 15:53 UTC NOAA

KEPH 291553Z AUTO 04004KT 9SM CLR 04/01 A3011 RMK AO2 SLP204 T00440011


Station Type Date Time Source
KEPH Decoded METAR 2020/10/29 15:53 UTC NOAA

EPHRATA MUNICIPAL AIRPORT, WA, United States (KEPH) 47-18N 119-31W 383M
Oct 29, 2020 - 11:53 AM EDT / 2020.10.29 1553 UTC
Wind: from the NE (040 degrees) at 5 MPH (4 KT):0
Visibility: 9 mile(s):0
Sky conditions: clear
Temperature: 39.9 F (4.4 C)
Dew Point: 34.0 F (1.1 C)
Relative Humidity: 79%
Pressure (altimeter): 30.11 in. Hg (1019 hPa)
ob: KEPH 291553Z AUTO 04004KT 9SM CLR 04/01 A3011 RMK AO2 SLP204 T00440011
cycle: 16

Station Type Date Time Source
KEPH TAF UTC NOAA

Error!

Example: see airport list